Current | Forecast
Updated: 2:00 AM CEST on June 21, 2018
Observed at Santiago de Compostela, Spain
Temperature 18°C
Humidity 94%
Dew Point 17°C
Wind NE at 6 km/h
Pressure 1020 hPa (Steady)
Conditions Mist
Visibility 5.0 kilometers
UV N/A
Clouds
Yesterday's Maximum 29°C
Yesterday's Minimum 15°C approx.
Yesterday's Cooling Degree Days 7 approx.
Sunrise6:51 AM CEST
Sunset10:12 PM CEST
Moon Rise3:34 PM CEST
Moon Set3:10 AM CEST
Moon PhaseMoon Phase
First Quarter
Raw METARMETAR LEST 210000Z 05003KT 330V110 5000 BR NSC 18/17 Q1020 NOSIG


Monday
. High: 66° F.
Tuesday
. High: 64° F.
Wednesday
. High: 57° F.
Thursday
. High: 62° F.
Friday
. High: 75° F.
Saturday
. High: 71° F.
Sunday
. High: 71° F.
Monday
. High: 89° F.

Click here for Marine Information
Scientific forecaster discussion (NWS)

Units: English | Metric

Find the Weather for any City, State or Zipcode, or Country:

U.S. State List | Severe Weather | Tropical Storms | Ski Conditions
United States | Canada | Central America | South America | Asia | Europe | Australia | Africa | Islands

Weather Underground

© Copyright 2018
The Weather Company, LLC